Accueil
METAR-TAF:

METAR-TAF

Aéroports :

Charleston, Caroline du Sud, États-Unis

latitude: 32-42-03N, longitude: 080-00-10W, altitude: 5 m

Observation

Le bulletin a été fait il y a 14 minutes, à 16:35 UTC
Vent 9 kt de nord
Température 10°C
Humidité 82%
Pression 1025 hPa
Visibilité: 14.5 km
Ciel couvert à une hauteur de 900 ft

METAR: KJZI 141635Z AUTO 35009KT 9SM OVC009 10/07 A3027 RMK AO2

Heure: 11:49 (16:49 UTC)


TAF: absent

Observations et prévisions météorologiques de plus de 4000 aéroports (messages METAR et TAF).

Les stations disponibles sont représentées par des disques jaunes et rouges sur la carte.

Passer la souris dessus pour voir le nom de la station.

Cliquer dessus pour voir les observations et prévisions météorologiques.

Pour changer de carte: cliquez sur les boutons verts avec une croix noire pour zoomer, sur le bouton vert avec un tiret pour effectuer un zoom arrière, ou sur les flèches vertes pour les cartes adjacentes.


METAR-TAF: